sensor_id;sensor_type;location;lat;lon;timestamp;temperature;humidity
40534;DHT22;26233;51.894;10.192;2023-10-13T00:01:48;18.50;56.90
40534;DHT22;26233;51.894;10.192;2023-10-13T00:04:18;18.50;56.90
40534;DHT22;26233;51.894;10.192;2023-10-13T00:06:48;18.50;56.80
40534;DHT22;26233;51.894;10.192;2023-10-13T00:09:15;18.50;57.40
40534;DHT22;26233;51.894;10.192;2023-10-13T00:11:44;18.50;56.80
40534;DHT22;26233;51.894;10.192;2023-10-13T00:14:13;18.50;56.70
40534;DHT22;26233;51.894;10.192;2023-10-13T00:16:42;18.50;56.70
40534;DHT22;26233;51.894;10.192;2023-10-13T00:19:28;18.50;56.70
40534;DHT22;26233;51.894;10.192;2023-10-13T00:22:03;18.50;56.70
40534;DHT22;26233;51.894;10.192;2023-10-13T00:24:35;18.50;56.80
40534;DHT22;26233;51.894;10.192;2023-10-13T00:27:12;18.60;56.80
40534;DHT22;26233;51.894;10.192;2023-10-13T00:29:55;18.60;56.80
40534;DHT22;26233;51.894;10.192;2023-10-13T00:32:36;18.60;56.80
40534;DHT22;26233;51.894;10.192;2023-10-13T00:35:07;18.70;57.00
40534;DHT22;26233;51.894;10.192;2023-10-13T00:37:37;18.60;56.80
40534;DHT22;26233;51.894;10.192;2023-10-13T00:40:10;18.70;56.90
40534;DHT22;26233;51.894;10.192;2023-10-13T00:42:52;18.70;56.90
40534;DHT22;26233;51.894;10.192;2023-10-13T00:45:20;18.70;56.90
40534;DHT22;26233;51.894;10.192;2023-10-13T00:47:47;18.70;56.80
40534;DHT22;26233;51.894;10.192;2023-10-13T00:50:23;18.70;56.80
40534;DHT22;26233;51.894;10.192;2023-10-13T00:52:50;18.70;56.80
40534;DHT22;26233;51.894;10.192;2023-10-13T00:55:18;18.70;56.70
40534;DHT22;26233;51.894;10.192;2023-10-13T00:57:51;18.70;56.80
40534;DHT22;26233;51.894;10.192;2023-10-13T01:00:19;18.70;56.80
40534;DHT22;26233;51.894;10.192;2023-10-13T01:02:53;18.70;56.70
40534;DHT22;26233;51.894;10.192;2023-10-13T01:05:25;18.70;56.70
40534;DHT22;26233;51.894;10.192;2023-10-13T01:07:52;18.70;56.70
40534;DHT22;26233;51.894;10.192;2023-10-13T01:10:20;18.70;56.70
40534;DHT22;26233;51.894;10.192;2023-10-13T01:12:51;18.70;56.80
40534;DHT22;26233;51.894;10.192;2023-10-13T01:15:18;18.70;56.70
40534;DHT22;26233;51.894;10.192;2023-10-13T01:17:46;18.70;56.70
40534;DHT22;26233;51.894;10.192;2023-10-13T01:20:13;18.70;56.80
40534;DHT22;26233;51.894;10.192;2023-10-13T01:22:47;18.70;56.80
40534;DHT22;26233;51.894;10.192;2023-10-13T01:25:22;18.70;56.70
40534;DHT22;26233;51.894;10.192;2023-10-13T01:27:52;18.70;57.40
40534;DHT22;26233;51.894;10.192;2023-10-13T01:30:18;18.70;56.70
40534;DHT22;26233;51.894;10.192;2023-10-13T01:32:50;18.70;56.80
40534;DHT22;26233;51.894;10.192;2023-10-13T01:35:17;18.70;56.80
40534;DHT22;26233;51.894;10.192;2023-10-13T01:37:50;18.70;56.70
40534;DHT22;26233;51.894;10.192;2023-10-13T01:40:16;18.70;56.80
40534;DHT22;26233;51.894;10.192;2023-10-13T01:42:47;18.70;56.80
40534;DHT22;26233;51.894;10.192;2023-10-13T01:45:20;18.70;56.70
40534;DHT22;26233;51.894;10.192;2023-10-13T01:47:52;18.70;57.30
40534;DHT22;26233;51.894;10.192;2023-10-13T01:50:18;18.70;56.70
40534;DHT22;26233;51.894;10.192;2023-10-13T01:52:46;18.70;57.30
40534;DHT22;26233;51.894;10.192;2023-10-13T01:55:13;18.70;56.70
40534;DHT22;26233;51.894;10.192;2023-10-13T01:57:40;18.70;56.80
40534;DHT22;26233;51.894;10.192;2023-10-13T02:00:10;18.70;56.80
40534;DHT22;26233;51.894;10.192;2023-10-13T02:02:44;18.70;56.80
40534;DHT22;26233;51.894;10.192;2023-10-13T02:05:10;18.60;56.80
40534;DHT22;26233;51.894;10.192;2023-10-13T02:07:41;18.70;56.90
40534;DHT22;26233;51.894;10.192;2023-10-13T02:10:11;18.60;56.80
40534;DHT22;26233;51.894;10.192;2023-10-13T02:12:38;18.60;56.80
40534;DHT22;26233;51.894;10.192;2023-10-13T02:15:10;18.60;56.90
40534;DHT22;26233;51.894;10.192;2023-10-13T02:17:46;18.70;56.90
40534;DHT22;26233;51.894;10.192;2023-10-13T02:20:17;18.60;56.90
40534;DHT22;26233;51.894;10.192;2023-10-13T02:22:48;18.60;56.90
40534;DHT22;26233;51.894;10.192;2023-10-13T02:25:15;18.60;56.90
40534;DHT22;26233;51.894;10.192;2023-10-13T02:28:00;18.60;56.90
40534;DHT22;26233;51.894;10.192;2023-10-13T02:30:27;18.60;56.90
40534;DHT22;26233;51.894;10.192;2023-10-13T02:32:54;18.60;57.00
40534;DHT22;26233;51.894;10.192;2023-10-13T02:35:21;18.60;56.90
40534;DHT22;26233;51.894;10.192;2023-10-13T02:37:55;18.60;56.90
40534;DHT22;26233;51.894;10.192;2023-10-13T02:40:24;18.60;56.80
40534;DHT22;26233;51.894;10.192;2023-10-13T02:42:52;18.60;56.90
40534;DHT22;26233;51.894;10.192;2023-10-13T02:45:18;18.60;56.90
40534;DHT22;26233;51.894;10.192;2023-10-13T02:47:52;18.60;56.90
40534;DHT22;26233;51.894;10.192;2023-10-13T02:50:35;18.60;57.00
40534;DHT22;26233;51.894;10.192;2023-10-13T02:53:08;18.60;57.00
40534;DHT22;26233;51.894;10.192;2023-10-13T02:55:38;18.60;57.10
40534;DHT22;26233;51.894;10.192;2023-10-13T02:58:14;18.60;57.10
40534;DHT22;26233;51.894;10.192;2023-10-13T03:00:41;18.60;57.10
40534;DHT22;26233;51.894;10.192;2023-10-13T03:03:09;18.60;57.20
40534;DHT22;26233;51.894;10.192;2023-10-13T03:05:36;18.60;57.20
40534;DHT22;26233;51.894;10.192;2023-10-13T03:08:05;18.60;57.20
40534;DHT22;26233;51.894;10.192;2023-10-13T03:10:34;18.60;57.20
40534;DHT22;26233;51.894;10.192;2023-10-13T03:13:05;18.60;57.10
40534;DHT22;26233;51.894;10.192;2023-10-13T03:15:33;18.70;57.20
40534;DHT22;26233;51.894;10.192;2023-10-13T03:18:01;18.70;57.20
40534;DHT22;26233;51.894;10.192;2023-10-13T03:20:29;18.60;57.10
40534;DHT22;26233;51.894;10.192;2023-10-13T03:22:58;18.70;57.20
40534;DHT22;26233;51.894;10.192;2023-10-13T03:25:24;18.70;57.20
40534;DHT22;26233;51.894;10.192;2023-10-13T03:28:00;18.70;57.30
40534;DHT22;26233;51.894;10.192;2023-10-13T03:30:31;18.70;57.30
40534;DHT22;26233;51.894;10.192;2023-10-13T03:33:08;18.80;57.30
40534;DHT22;26233;51.894;10.192;2023-10-13T03:35:39;18.80;57.30
40534;DHT22;26233;51.894;10.192;2023-10-13T03:38:10;18.80;57.30
40534;DHT22;26233;51.894;10.192;2023-10-13T03:40:47;18.80;57.30
40534;DHT22;26233;51.894;10.192;2023-10-13T03:43:22;18.80;57.30
40534;DHT22;26233;51.894;10.192;2023-10-13T03:45:50;18.80;57.30
40534;DHT22;26233;51.894;10.192;2023-10-13T03:48:26;18.80;57.30
40534;DHT22;26233;51.894;10.192;2023-10-13T03:50:59;18.90;57.40
40534;DHT22;26233;51.894;10.192;2023-10-13T03:53:32;18.90;57.30
40534;DHT22;26233;51.894;10.192;2023-10-13T03:56:00;18.90;57.30
40534;DHT22;26233;51.894;10.192;2023-10-13T03:58:38;18.90;57.30
40534;DHT22;26233;51.894;10.192;2023-10-13T04:01:08;18.90;57.30
40534;DHT22;26233;51.894;10.192;2023-10-13T04:03:38;18.90;57.30
40534;DHT22;26233;51.894;10.192;2023-10-13T04:06:23;18.90;57.20
40534;DHT22;26233;51.894;10.192;2023-10-13T04:09:13;19.00;57.30
40534;DHT22;26233;51.894;10.192;2023-10-13T04:11:59;18.90;57.30
40534;DHT22;26233;51.894;10.192;2023-10-13T04:14:44;19.00;57.40
40534;DHT22;26233;51.894;10.192;2023-10-13T04:17:37;19.00;57.30
40534;DHT22;26233;51.894;10.192;2023-10-13T04:20:10;19.00;57.30
40534;DHT22;26233;51.894;10.192;2023-10-13T04:22:54;19.00;57.30
40534;DHT22;26233;51.894;10.192;2023-10-13T04:25:38;19.00;57.40
40534;DHT22;26233;51.894;10.192;2023-10-13T04:28:18;19.00;57.30
40534;DHT22;26233;51.894;10.192;2023-10-13T04:30:59;19.00;57.30
40534;DHT22;26233;51.894;10.192;2023-10-13T04:33:37;19.00;57.30
40534;DHT22;26233;51.894;10.192;2023-10-13T04:36:17;19.00;57.30
40534;DHT22;26233;51.894;10.192;2023-10-13T04:39:03;19.00;57.30
40534;DHT22;26233;51.894;10.192;2023-10-13T04:41:36;19.00;57.30
40534;DHT22;26233;51.894;10.192;2023-10-13T04:44:07;19.00;57.30
40534;DHT22;26233;51.894;10.192;2023-10-13T04:47:09;19.00;57.30
40534;DHT22;26233;51.894;10.192;2023-10-13T04:49:43;19.00;57.30
40534;DHT22;26233;51.894;10.192;2023-10-13T04:52:18;19.00;57.30
40534;DHT22;26233;51.894;10.192;2023-10-13T04:55:05;19.00;57.30
40534;DHT22;26233;51.894;10.192;2023-10-13T04:57:42;19.00;57.30
40534;DHT22;26233;51.894;10.192;2023-10-13T05:00:25;19.00;57.30
40534;DHT22;26233;51.894;10.192;2023-10-13T05:03:06;19.00;57.30
40534;DHT22;26233;51.894;10.192;2023-10-13T05:05:51;19.00;57.30
40534;DHT22;26233;51.894;10.192;2023-10-13T05:08:34;19.00;57.30
40534;DHT22;26233;51.894;10.192;2023-10-13T05:11:20;19.00;57.30
40534;DHT22;26233;51.894;10.192;2023-10-13T05:14:05;19.00;57.30
40534;DHT22;26233;51.894;10.192;2023-10-13T05:16:49;19.00;57.30
40534;DHT22;26233;51.894;10.192;2023-10-13T05:19:39;19.00;57.30
40534;DHT22;26233;51.894;10.192;2023-10-13T05:22:24;19.00;57.40
40534;DHT22;26233;51.894;10.192;2023-10-13T05:25:08;19.00;57.30
40534;DHT22;26233;51.894;10.192;2023-10-13T05:27:54;19.00;57.30
40534;DHT22;26233;51.894;10.192;2023-10-13T05:30:39;19.00;57.40
40534;DHT22;26233;51.894;10.192;2023-10-13T05:33:24;19.00;57.40
40534;DHT22;26233;51.894;10.192;2023-10-13T05:36:12;19.10;57.50
40534;DHT22;26233;51.894;10.192;2023-10-13T05:38:56;19.00;57.50
40534;DHT22;26233;51.894;10.192;2023-10-13T05:41:41;19.00;57.50
40534;DHT22;26233;51.894;10.192;2023-10-13T05:44:26;19.00;57.50
40534;DHT22;26233;51.894;10.192;2023-10-13T05:47:04;19.10;57.50
40534;DHT22;26233;51.894;10.192;2023-10-13T05:49:48;19.10;57.50
40534;DHT22;26233;51.894;10.192;2023-10-13T05:52:19;19.10;57.50
40534;DHT22;26233;51.894;10.192;2023-10-13T05:54:46;19.10;57.50
40534;DHT22;26233;51.894;10.192;2023-10-13T05:57:31;19.10;57.50
40534;DHT22;26233;51.894;10.192;2023-10-13T06:00:17;19.10;57.50
40534;DHT22;26233;51.894;10.192;2023-10-13T06:03:02;19.10;57.60
40534;DHT22;26233;51.894;10.192;2023-10-13T06:05:48;19.20;57.70
40534;DHT22;26233;51.894;10.192;2023-10-13T06:08:33;19.20;57.60
40534;DHT22;26233;51.894;10.192;2023-10-13T06:11:17;19.20;57.60
40534;DHT22;26233;51.894;10.192;2023-10-13T06:14:10;19.20;57.60
40534;DHT22;26233;51.894;10.192;2023-10-13T06:16:56;19.20;57.60
40534;DHT22;26233;51.894;10.192;2023-10-13T06:19:41;19.20;57.60
40534;DHT22;26233;51.894;10.192;2023-10-13T06:22:25;19.20;57.60
40534;DHT22;26233;51.894;10.192;2023-10-13T06:25:10;19.20;57.60
40534;DHT22;26233;51.894;10.192;2023-10-13T06:27:54;19.30;57.70
40534;DHT22;26233;51.894;10.192;2023-10-13T06:30:39;19.20;57.60
40534;DHT22;26233;51.894;10.192;2023-10-13T06:33:08;19.30;57.70
40534;DHT22;26233;51.894;10.192;2023-10-13T06:35:36;19.30;57.70
40534;DHT22;26233;51.894;10.192;2023-10-13T06:38:04;19.30;57.70
40534;DHT22;26233;51.894;10.192;2023-10-13T06:40:35;19.40;57.80
40534;DHT22;26233;51.894;10.192;2023-10-13T06:43:05;19.40;57.80
40534;DHT22;26233;51.894;10.192;2023-10-13T06:45:42;19.40;57.80
40534;DHT22;26233;51.894;10.192;2023-10-13T06:48:17;19.40;57.70
40534;DHT22;26233;51.894;10.192;2023-10-13T06:50:49;19.50;57.80
40534;DHT22;26233;51.894;10.192;2023-10-13T06:53:18;19.50;57.80
40534;DHT22;26233;51.894;10.192;2023-10-13T06:55:45;19.50;57.80
40534;DHT22;26233;51.894;10.192;2023-10-13T06:58:15;19.60;57.90
40534;DHT22;26233;51.894;10.192;2023-10-13T07:00:49;19.50;57.80
40534;DHT22;26233;51.894;10.192;2023-10-13T07:03:22;19.60;57.90
40534;DHT22;26233;51.894;10.192;2023-10-13T07:05:50;19.60;58.00
40534;DHT22;26233;51.894;10.192;2023-10-13T07:08:19;19.60;58.10
40534;DHT22;26233;51.894;10.192;2023-10-13T07:10:50;19.70;58.20
40534;DHT22;26233;51.894;10.192;2023-10-13T07:13:27;19.80;58.20
40534;DHT22;26233;51.894;10.192;2023-10-13T07:15:54;19.80;58.20
40534;DHT22;26233;51.894;10.192;2023-10-13T07:18:32;19.80;58.10
40534;DHT22;26233;51.894;10.192;2023-10-13T07:21:03;19.90;58.10
40534;DHT22;26233;51.894;10.192;2023-10-13T07:23:36;19.90;58.00
40534;DHT22;26233;51.894;10.192;2023-10-13T07:26:04;19.90;58.00
40534;DHT22;26233;51.894;10.192;2023-10-13T07:28:34;20.00;58.50
40534;DHT22;26233;51.894;10.192;2023-10-13T07:31:02;20.00;57.80
40534;DHT22;26233;51.894;10.192;2023-10-13T07:33:40;20.00;57.70
40534;DHT22;26233;51.894;10.192;2023-10-13T07:36:09;20.00;57.70
40534;DHT22;26233;51.894;10.192;2023-10-13T07:38:44;20.00;57.70
40534;DHT22;26233;51.894;10.192;2023-10-13T07:41:14;20.00;57.70
40534;DHT22;26233;51.894;10.192;2023-10-13T07:43:43;20.00;57.70
40534;DHT22;26233;51.894;10.192;2023-10-13T07:46:11;20.00;57.70
40534;DHT22;26233;51.894;10.192;2023-10-13T07:48:40;20.00;57.80
40534;DHT22;26233;51.894;10.192;2023-10-13T07:51:11;20.00;57.80
40534;DHT22;26233;51.894;10.192;2023-10-13T07:53:41;20.10;57.70
40534;DHT22;26233;51.894;10.192;2023-10-13T07:56:09;20.00;57.60
40534;DHT22;26233;51.894;10.192;2023-10-13T07:58:38;20.00;57.50
40534;DHT22;26233;51.894;10.192;2023-10-13T08:01:18;19.90;57.50
40534;DHT22;26233;51.894;10.192;2023-10-13T08:03:47;20.00;57.60
40534;DHT22;26233;51.894;10.192;2023-10-13T08:06:22;19.90;57.60
40534;DHT22;26233;51.894;10.192;2023-10-13T08:08:54;19.90;57.70
40534;DHT22;26233;51.894;10.192;2023-10-13T08:11:25;19.90;57.70
40534;DHT22;26233;51.894;10.192;2023-10-13T08:13:57;19.80;57.80
40534;DHT22;26233;51.894;10.192;2023-10-13T08:16:26;19.80;57.80
40534;DHT22;26233;51.894;10.192;2023-10-13T08:19:12;19.80;57.90
40534;DHT22;26233;51.894;10.192;2023-10-13T08:21:41;19.70;58.00
40534;DHT22;26233;51.894;10.192;2023-10-13T08:24:15;19.80;58.10
40534;DHT22;26233;51.894;10.192;2023-10-13T08:26:50;19.70;58.10
40534;DHT22;26233;51.894;10.192;2023-10-13T08:29:23;19.80;58.30
40534;DHT22;26233;51.894;10.192;2023-10-13T08:32:08;19.70;58.40
40534;DHT22;26233;51.894;10.192;2023-10-13T08:34:47;19.70;58.40
40534;DHT22;26233;51.894;10.192;2023-10-13T08:37:35;19.80;58.60
40534;DHT22;26233;51.894;10.192;2023-10-13T08:40:23;19.80;58.60
40534;DHT22;26233;51.894;10.192;2023-10-13T08:43:05;19.80;58.60
40534;DHT22;26233;51.894;10.192;2023-10-13T08:45:38;19.90;58.70
40534;DHT22;26233;51.894;10.192;2023-10-13T08:48:24;20.00;58.80
40534;DHT22;26233;51.894;10.192;2023-10-13T08:51:00;20.00;58.90
40534;DHT22;26233;51.894;10.192;2023-10-13T08:53:36;20.00;58.90
40534;DHT22;26233;51.894;10.192;2023-10-13T08:56:12;20.10;59.00
40534;DHT22;26233;51.894;10.192;2023-10-13T08:58:44;20.10;58.90
40534;DHT22;26233;51.894;10.192;2023-10-13T09:01:33;20.20;59.00
40534;DHT22;26233;51.894;10.192;2023-10-13T09:04:00;20.20;58.90
40534;DHT22;26233;51.894;10.192;2023-10-13T09:06:44;20.30;59.00
40534;DHT22;26233;51.894;10.192;2023-10-13T09:09:13;20.30;59.10
40534;DHT22;26233;51.894;10.192;2023-10-13T09:11:53;20.40;59.40
40534;DHT22;26233;51.894;10.192;2023-10-13T09:14:34;20.50;59.70
40534;DHT22;26233;51.894;10.192;2023-10-13T09:17:04;20.60;59.90
40534;DHT22;26233;51.894;10.192;2023-10-13T09:19:47;20.70;59.80
40534;DHT22;26233;51.894;10.192;2023-10-13T09:22:22;20.90;59.70
40534;DHT22;26233;51.894;10.192;2023-10-13T09:24:57;21.00;59.50
40534;DHT22;26233;51.894;10.192;2023-10-13T09:27:27;21.00;59.30
40534;DHT22;26233;51.894;10.192;2023-10-13T09:29:58;21.10;59.10
40534;DHT22;26233;51.894;10.192;2023-10-13T09:32:36;21.20;59.10
40534;DHT22;26233;51.894;10.192;2023-10-13T09:35:16;21.20;59.00
40534;DHT22;26233;51.894;10.192;2023-10-13T09:37:45;21.30;59.10
40534;DHT22;26233;51.894;10.192;2023-10-13T09:40:15;21.40;59.20
40534;DHT22;26233;51.894;10.192;2023-10-13T09:42:51;21.40;59.00
40534;DHT22;26233;51.894;10.192;2023-10-13T09:45:24;21.60;59.10
40534;DHT22;26233;51.894;10.192;2023-10-13T09:47:55;21.50;58.90
40534;DHT22;26233;51.894;10.192;2023-10-13T09:50:36;21.50;58.80
40534;DHT22;26233;51.894;10.192;2023-10-13T09:53:08;21.60;58.80
40534;DHT22;26233;51.894;10.192;2023-10-13T09:55:38;21.60;58.70
40534;DHT22;26233;51.894;10.192;2023-10-13T09:58:11;21.70;58.70
40534;DHT22;26233;51.894;10.192;2023-10-13T10:00:43;21.70;58.70
40534;DHT22;26233;51.894;10.192;2023-10-13T10:03:14;21.80;58.80
40534;DHT22;26233;51.894;10.192;2023-10-13T10:05:41;21.80;58.70
40534;DHT22;26233;51.894;10.192;2023-10-13T10:08:24;21.80;58.60
40534;DHT22;26233;51.894;10.192;2023-10-13T10:11:06;21.90;58.60
40534;DHT22;26233;51.894;10.192;2023-10-13T10:13:47;21.90;58.50
40534;DHT22;26233;51.894;10.192;2023-10-13T10:16:30;22.00;58.60
40534;DHT22;26233;51.894;10.192;2023-10-13T10:19:07;22.00;58.40
40534;DHT22;26233;51.894;10.192;2023-10-13T10:21:34;22.00;58.30
40534;DHT22;26233;51.894;10.192;2023-10-13T10:24:14;22.00;58.20
40534;DHT22;26233;51.894;10.192;2023-10-13T10:26:53;22.00;58.20
40534;DHT22;26233;51.894;10.192;2023-10-13T10:29:20;22.10;58.20
40534;DHT22;26233;51.894;10.192;2023-10-13T10:31:47;22.10;58.30
40534;DHT22;26233;51.894;10.192;2023-10-13T10:34:15;22.20;58.30
40534;DHT22;26233;51.894;10.192;2023-10-13T10:36:46;22.20;58.40
40534;DHT22;26233;51.894;10.192;2023-10-13T10:39:18;22.30;58.90
40534;DHT22;26233;51.894;10.192;2023-10-13T10:41:47;22.50;59.40
40534;DHT22;26233;51.894;10.192;2023-10-13T10:44:18;22.80;59.90
40534;DHT22;26233;51.894;10.192;2023-10-13T10:47:09;23.00;60.60
40534;DHT22;26233;51.894;10.192;2023-10-13T10:49:37;23.30;59.60
40534;DHT22;26233;51.894;10.192;2023-10-13T10:52:09;23.60;59.70
40534;DHT22;26233;51.894;10.192;2023-10-13T10:54:45;23.90;59.00
40534;DHT22;26233;51.894;10.192;2023-10-13T10:57:17;24.10;58.50
40534;DHT22;26233;51.894;10.192;2023-10-13T10:59:45;24.30;58.40
40534;DHT22;26233;51.894;10.192;2023-10-13T11:02:12;24.60;58.60
40534;DHT22;26233;51.894;10.192;2023-10-13T11:04:44;24.80;58.50
40534;DHT22;26233;51.894;10.192;2023-10-13T11:07:22;25.00;57.90
40534;DHT22;26233;51.894;10.192;2023-10-13T11:09:51;25.10;57.50
40534;DHT22;26233;51.894;10.192;2023-10-13T11:12:32;25.30;57.20
40534;DHT22;26233;51.894;10.192;2023-10-13T11:15:03;25.50;56.80
40534;DHT22;26233;51.894;10.192;2023-10-13T11:17:39;25.60;56.30
40534;DHT22;26233;51.894;10.192;2023-10-13T11:20:17;25.60;55.80
40534;DHT22;26233;51.894;10.192;2023-10-13T11:22:51;25.60;54.80
40534;DHT22;26233;51.894;10.192;2023-10-13T11:25:24;25.60;54.70
40534;DHT22;26233;51.894;10.192;2023-10-13T11:27:56;25.40;53.80
40534;DHT22;26233;51.894;10.192;2023-10-13T11:30:26;25.20;54.00
40534;DHT22;26233;51.894;10.192;2023-10-13T11:33:07;25.20;54.00
40534;DHT22;26233;51.894;10.192;2023-10-13T11:35:36;25.00;53.90
40534;DHT22;26233;51.894;10.192;2023-10-13T11:38:22;24.90;54.00
40534;DHT22;26233;51.894;10.192;2023-10-13T11:40:56;24.70;54.00
40534;DHT22;26233;51.894;10.192;2023-10-13T11:43:35;24.70;54.40
40534;DHT22;26233;51.894;10.192;2023-10-13T11:46:18;24.60;54.60
40534;DHT22;26233;51.894;10.192;2023-10-13T11:49:00;24.70;55.10
40534;DHT22;26233;51.894;10.192;2023-10-13T11:51:31;24.70;55.10
40534;DHT22;26233;51.894;10.192;2023-10-13T11:53:59;24.80;55.00
40534;DHT22;26233;51.894;10.192;2023-10-13T11:56:27;24.90;55.00
40534;DHT22;26233;51.894;10.192;2023-10-13T11:58:54;25.00;54.80
40534;DHT22;26233;51.894;10.192;2023-10-13T12:01:26;25.10;54.70
40534;DHT22;26233;51.894;10.192;2023-10-13T12:04:19;25.20;54.40
40534;DHT22;26233;51.894;10.192;2023-10-13T12:07:06;25.40;54.70
40534;DHT22;26233;51.894;10.192;2023-10-13T12:09:47;25.50;54.80
40534;DHT22;26233;51.894;10.192;2023-10-13T12:12:33;25.70;54.50
40534;DHT22;26233;51.894;10.192;2023-10-13T12:15:09;25.80;54.10
40534;DHT22;26233;51.894;10.192;2023-10-13T12:17:40;25.90;54.60
40534;DHT22;26233;51.894;10.192;2023-10-13T12:20:11;26.00;54.00
40534;DHT22;26233;51.894;10.192;2023-10-13T12:22:44;26.20;53.40
40534;DHT22;26233;51.894;10.192;2023-10-13T12:25:20;26.30;53.50
40534;DHT22;26233;51.894;10.192;2023-10-13T12:28:01;26.40;53.30
40534;DHT22;26233;51.894;10.192;2023-10-13T12:30:44;26.60;52.90
40534;DHT22;26233;51.894;10.192;2023-10-13T12:33:18;26.70;52.70
40534;DHT22;26233;51.894;10.192;2023-10-13T12:35:58;26.80;52.20
40534;DHT22;26233;51.894;10.192;2023-10-13T12:38:33;26.80;51.50
40534;DHT22;26233;51.894;10.192;2023-10-13T12:41:17;26.80;51.50
40534;DHT22;26233;51.894;10.192;2023-10-13T12:44:05;26.80;50.90
40534;DHT22;26233;51.894;10.192;2023-10-13T12:46:50;26.70;50.50
40534;DHT22;26233;51.894;10.192;2023-10-13T12:49:35;26.60;50.60
40534;DHT22;26233;51.894;10.192;2023-10-13T12:52:15;26.40;50.10
40534;DHT22;26233;51.894;10.192;2023-10-13T12:54:45;26.30;50.10
40534;DHT22;26233;51.894;10.192;2023-10-13T12:57:20;26.20;50.00
40534;DHT22;26233;51.894;10.192;2023-10-13T12:59:50;26.00;49.90
40534;DHT22;26233;51.894;10.192;2023-10-13T13:02:19;25.90;49.80
40534;DHT22;26233;51.894;10.192;2023-10-13T13:04:46;25.80;49.80
40534;DHT22;26233;51.894;10.192;2023-10-13T13:07:18;25.70;49.80
40534;DHT22;26233;51.894;10.192;2023-10-13T13:09:45;25.50;49.60
40534;DHT22;26233;51.894;10.192;2023-10-13T13:12:12;25.40;49.60
40534;DHT22;26233;51.894;10.192;2023-10-13T13:14:40;25.30;49.70
40534;DHT22;26233;51.894;10.192;2023-10-13T13:17:12;25.20;49.70
40534;DHT22;26233;51.894;10.192;2023-10-13T13:19:39;25.10;49.70
40534;DHT22;26233;51.894;10.192;2023-10-13T13:22:07;25.00;50.40
40534;DHT22;26233;51.894;10.192;2023-10-13T13:24:38;24.90;49.80
40534;DHT22;26233;51.894;10.192;2023-10-13T13:27:09;24.80;49.80
40534;DHT22;26233;51.894;10.192;2023-10-13T13:29:40;24.80;50.00
40534;DHT22;26233;51.894;10.192;2023-10-13T13:32:07;24.70;50.10
40534;DHT22;26233;51.894;10.192;2023-10-13T13:34:44;24.70;50.10
40534;DHT22;26233;51.894;10.192;2023-10-13T13:37:20;24.70;50.20
40534;DHT22;26233;51.894;10.192;2023-10-13T13:39:47;24.70;50.20
40534;DHT22;26233;51.894;10.192;2023-10-13T13:42:14;24.70;50.10
40534;DHT22;26233;51.894;10.192;2023-10-13T13:44:43;24.60;49.70
40534;DHT22;26233;51.894;10.192;2023-10-13T13:47:12;24.60;49.70
40534;DHT22;26233;51.894;10.192;2023-10-13T13:49:39;24.50;49.70
40534;DHT22;26233;51.894;10.192;2023-10-13T13:52:13;24.50;49.70
40534;DHT22;26233;51.894;10.192;2023-10-13T13:54:43;24.50;49.70
40534;DHT22;26233;51.894;10.192;2023-10-13T13:57:10;24.50;49.90
40534;DHT22;26233;51.894;10.192;2023-10-13T13:59:38;24.50;50.00
40534;DHT22;26233;51.894;10.192;2023-10-13T14:02:09;24.40;49.90
40534;DHT22;26233;51.894;10.192;2023-10-13T14:04:45;24.50;49.90
40534;DHT22;26233;51.894;10.192;2023-10-13T14:07:17;24.50;49.80
40534;DHT22;26233;51.894;10.192;2023-10-13T14:09:45;24.50;50.00
40534;DHT22;26233;51.894;10.192;2023-10-13T14:12:17;24.50;50.10
40534;DHT22;26233;51.894;10.192;2023-10-13T14:14:55;24.60;50.20
40534;DHT22;26233;51.894;10.192;2023-10-13T14:17:22;24.70;50.10
40534;DHT22;26233;51.894;10.192;2023-10-13T14:19:55;24.70;49.90
40534;DHT22;26233;51.894;10.192;2023-10-13T14:22:24;24.80;50.50
40534;DHT22;26233;51.894;10.192;2023-10-13T14:24:52;24.80;49.60
40534;DHT22;26233;51.894;10.192;2023-10-13T14:27:21;24.80;49.60
40534;DHT22;26233;51.894;10.192;2023-10-13T14:29:51;24.80;49.60
40534;DHT22;26233;51.894;10.192;2023-10-13T14:32:20;24.90;49.80
40534;DHT22;26233;51.894;10.192;2023-10-13T14:34:50;25.00;49.80
40534;DHT22;26233;51.894;10.192;2023-10-13T14:37:21;25.00;49.70
40534;DHT22;26233;51.894;10.192;2023-10-13T14:39:55;25.00;49.50
40534;DHT22;26233;51.894;10.192;2023-10-13T14:42:24;25.10;49.50
40534;DHT22;26233;51.894;10.192;2023-10-13T14:44:51;25.10;49.50
40534;DHT22;26233;51.894;10.192;2023-10-13T14:47:22;25.10;49.20
40534;DHT22;26233;51.894;10.192;2023-10-13T14:49:52;25.10;49.00
40534;DHT22;26233;51.894;10.192;2023-10-13T14:52:21;25.00;48.70
40534;DHT22;26233;51.894;10.192;2023-10-13T14:54:48;25.00;48.70
40534;DHT22;26233;51.894;10.192;2023-10-13T14:57:22;25.00;48.80
40534;DHT22;26233;51.894;10.192;2023-10-13T14:59:51;24.90;48.60
40534;DHT22;26233;51.894;10.192;2023-10-13T15:02:19;24.90;48.70
40534;DHT22;26233;51.894;10.192;2023-10-13T15:04:46;24.90;48.60
40534;DHT22;26233;51.894;10.192;2023-10-13T15:07:15;24.90;48.50
40534;DHT22;26233;51.894;10.192;2023-10-13T15:09:42;24.80;48.40
40534;DHT22;26233;51.894;10.192;2023-10-13T15:12:10;24.80;48.40
40534;DHT22;26233;51.894;10.192;2023-10-13T15:14:38;24.70;48.20
40534;DHT22;26233;51.894;10.192;2023-10-13T15:17:08;24.60;48.00
40534;DHT22;26233;51.894;10.192;2023-10-13T15:19:36;24.50;47.90
40534;DHT22;26233;51.894;10.192;2023-10-13T15:22:04;24.50;48.00
40534;DHT22;26233;51.894;10.192;2023-10-13T15:24:32;24.40;47.70
40534;DHT22;26233;51.894;10.192;2023-10-13T15:27:07;24.30;47.90
40534;DHT22;26233;51.894;10.192;2023-10-13T15:29:34;24.30;48.00
40534;DHT22;26233;51.894;10.192;2023-10-13T15:32:06;24.20;48.00
40534;DHT22;26233;51.894;10.192;2023-10-13T15:34:46;24.10;47.90
40534;DHT22;26233;51.894;10.192;2023-10-13T15:37:14;24.10;48.00
40534;DHT22;26233;51.894;10.192;2023-10-13T15:39:41;24.10;48.00
40534;DHT22;26233;51.894;10.192;2023-10-13T15:42:08;24.00;47.80
40534;DHT22;26233;51.894;10.192;2023-10-13T15:44:35;24.00;47.90
40534;DHT22;26233;51.894;10.192;2023-10-13T15:47:02;24.00;47.80
40534;DHT22;26233;51.894;10.192;2023-10-13T15:49:31;24.00;47.80
40534;DHT22;26233;51.894;10.192;2023-10-13T15:51:59;24.00;47.80
40534;DHT22;26233;51.894;10.192;2023-10-13T15:54:26;23.90;47.70
40534;DHT22;26233;51.894;10.192;2023-10-13T15:56:53;23.90;47.80